sensor_id;sensor_type;location;lat;lon;timestamp;pressure;altitude;pressure_sealevel;temperature;humidity
50011;BME280;35899;50.352;19.390;2023-05-09T00:01:34;98819.08;;;2.88;75.74
50011;BME280;35899;50.352;19.390;2023-05-09T00:04:01;98818.21;;;2.82;76.01
50011;BME280;35899;50.352;19.390;2023-05-09T00:06:30;98816.29;;;2.77;75.79
50011;BME280;35899;50.352;19.390;2023-05-09T00:08:57;98813.63;;;2.73;76.05
50011;BME280;35899;50.352;19.390;2023-05-09T00:11:23;98812.52;;;2.70;76.13
50011;BME280;35899;50.352;19.390;2023-05-09T00:13:50;98809.63;;;2.69;76.22
50011;BME280;35899;50.352;19.390;2023-05-09T00:16:17;98808.44;;;2.68;76.21
50011;BME280;35899;50.352;19.390;2023-05-09T00:18:43;98808.47;;;2.67;76.44
50011;BME280;35899;50.352;19.390;2023-05-09T00:21:09;98809.19;;;2.66;76.30
50011;BME280;35899;50.352;19.390;2023-05-09T00:23:36;98806.02;;;2.63;76.35
50011;BME280;35899;50.352;19.390;2023-05-09T00:26:06;98802.96;;;2.62;76.40
50011;BME280;35899;50.352;19.390;2023-05-09T00:28:32;98799.27;;;2.60;76.52
50011;BME280;35899;50.352;19.390;2023-05-09T00:30:58;98797.66;;;2.55;76.45
50011;BME280;35899;50.352;19.390;2023-05-09T00:33:25;98797.36;;;2.54;76.38
50011;BME280;35899;50.352;19.390;2023-05-09T00:35:52;98798.75;;;2.52;76.46
50011;BME280;35899;50.352;19.390;2023-05-09T00:38:19;98796.05;;;2.51;76.55
50011;BME280;35899;50.352;19.390;2023-05-09T00:40:46;98796.09;;;2.49;76.55
50011;BME280;35899;50.352;19.390;2023-05-09T00:43:14;98792.01;;;2.48;76.55
50011;BME280;35899;50.352;19.390;2023-05-09T00:45:41;98790.72;;;2.45;76.52
50011;BME280;35899;50.352;19.390;2023-05-09T00:48:11;98787.02;;;2.42;76.63
50011;BME280;35899;50.352;19.390;2023-05-09T00:50:37;98786.77;;;2.39;76.73
50011;BME280;35899;50.352;19.390;2023-05-09T00:53:04;98787.91;;;2.34;76.81
50011;BME280;35899;50.352;19.390;2023-05-09T00:55:33;98786.08;;;2.31;77.04
50011;BME280;35899;50.352;19.390;2023-05-09T00:58:00;98781.30;;;2.31;77.19
50011;BME280;35899;50.352;19.390;2023-05-09T01:00:28;98781.15;;;2.31;77.17
50011;BME280;35899;50.352;19.390;2023-05-09T01:02:54;98781.16;;;2.30;77.15
50011;BME280;35899;50.352;19.390;2023-05-09T01:05:25;98780.86;;;2.28;77.14
50011;BME280;35899;50.352;19.390;2023-05-09T01:10:34;98778.05;;;2.24;77.45
50011;BME280;35899;50.352;19.390;2023-05-09T01:13:08;98775.35;;;2.23;77.52
50011;BME280;35899;50.352;19.390;2023-05-09T01:15:37;98774.02;;;2.21;77.58
50011;BME280;35899;50.352;19.390;2023-05-09T01:18:14;98772.36;;;2.19;77.90
50011;BME280;35899;50.352;19.390;2023-05-09T01:20:43;98770.86;;;2.18;78.06
50011;BME280;35899;50.352;19.390;2023-05-09T01:31:06;98772.29;;;2.14;78.62
50011;BME280;35899;50.352;19.390;2023-05-09T01:33:35;98770.96;;;2.13;78.70
50011;BME280;35899;50.352;19.390;2023-05-09T01:36:04;98770.29;;;2.13;78.79
50011;BME280;35899;50.352;19.390;2023-05-09T01:38:33;98770.31;;;2.11;78.75
50011;BME280;35899;50.352;19.390;2023-05-09T01:41:03;98772.73;;;2.10;78.73
50011;BME280;35899;50.352;19.390;2023-05-09T01:43:30;98771.73;;;2.09;78.88
50011;BME280;35899;50.352;19.390;2023-05-09T01:45:58;98770.06;;;2.08;78.99
50011;BME280;35899;50.352;19.390;2023-05-09T01:48:38;98768.23;;;2.05;78.98
50011;BME280;35899;50.352;19.390;2023-05-09T01:51:05;98770.33;;;2.04;78.93
50011;BME280;35899;50.352;19.390;2023-05-09T01:53:32;98771.06;;;2.01;79.01
50011;BME280;35899;50.352;19.390;2023-05-09T01:56:01;98768.71;;;1.99;79.08
50011;BME280;35899;50.352;19.390;2023-05-09T01:58:36;98767.21;;;1.97;78.97
50011;BME280;35899;50.352;19.390;2023-05-09T02:01:08;98766.09;;;1.94;79.12
50011;BME280;35899;50.352;19.390;2023-05-09T02:03:41;98760.52;;;1.91;79.33
50011;BME280;35899;50.352;19.390;2023-05-09T02:06:19;98756.98;;;1.89;79.48
50011;BME280;35899;50.352;19.390;2023-05-09T02:08:47;98756.85;;;1.87;79.51
50011;BME280;35899;50.352;19.390;2023-05-09T02:11:15;98756.36;;;1.86;79.62
50011;BME280;35899;50.352;19.390;2023-05-09T02:13:41;98750.27;;;1.84;79.71
50011;BME280;35899;50.352;19.390;2023-05-09T02:16:08;98745.21;;;1.81;79.82
50011;BME280;35899;50.352;19.390;2023-05-09T02:18:35;98744.77;;;1.77;79.95
50011;BME280;35899;50.352;19.390;2023-05-09T02:21:01;98742.20;;;1.77;80.16
50011;BME280;35899;50.352;19.390;2023-05-09T02:23:28;98736.75;;;1.77;80.13
50011;BME280;35899;50.352;19.390;2023-05-09T02:25:55;98734.36;;;1.78;80.19
50011;BME280;35899;50.352;19.390;2023-05-09T02:28:22;98735.56;;;1.77;80.35
50011;BME280;35899;50.352;19.390;2023-05-09T02:30:50;98737.54;;;1.73;80.26
50011;BME280;35899;50.352;19.390;2023-05-09T02:33:18;98738.67;;;1.67;80.29
50011;BME280;35899;50.352;19.390;2023-05-09T02:35:45;98739.41;;;1.65;80.62
50011;BME280;35899;50.352;19.390;2023-05-09T02:38:12;98737.06;;;1.63;80.53
50011;BME280;35899;50.352;19.390;2023-05-09T02:40:38;98743.42;;;1.61;80.53
50011;BME280;35899;50.352;19.390;2023-05-09T02:43:07;98746.23;;;1.56;80.64
50011;BME280;35899;50.352;19.390;2023-05-09T02:45:36;98745.39;;;1.56;81.03
50011;BME280;35899;50.352;19.390;2023-05-09T02:48:02;98742.65;;;1.56;81.03
50011;BME280;35899;50.352;19.390;2023-05-09T02:50:30;98739.08;;;1.56;81.02
50011;BME280;35899;50.352;19.390;2023-05-09T02:52:56;98743.67;;;1.57;81.25
50011;BME280;35899;50.352;19.390;2023-05-09T02:55:23;98744.70;;;1.56;81.19
50011;BME280;35899;50.352;19.390;2023-05-09T02:57:49;98746.26;;;1.55;81.31
50011;BME280;35899;50.352;19.390;2023-05-09T03:00:30;98743.04;;;1.54;81.29
50011;BME280;35899;50.352;19.390;2023-05-09T03:02:56;98744.75;;;1.54;81.23
50011;BME280;35899;50.352;19.390;2023-05-09T03:05:23;98741.85;;;1.53;81.36
50011;BME280;35899;50.352;19.390;2023-05-09T03:07:49;98743.38;;;1.54;81.44
50011;BME280;35899;50.352;19.390;2023-05-09T03:10:16;98744.38;;;1.55;81.57
50011;BME280;35899;50.352;19.390;2023-05-09T03:12:42;98741.11;;;1.57;81.64
50011;BME280;35899;50.352;19.390;2023-05-09T03:15:12;98741.39;;;1.60;81.66
50011;BME280;35899;50.352;19.390;2023-05-09T03:17:39;98740.81;;;1.63;81.66
50011;BME280;35899;50.352;19.390;2023-05-09T03:20:08;98738.92;;;1.64;81.55
50011;BME280;35899;50.352;19.390;2023-05-09T03:22:34;98735.83;;;1.65;81.60
50011;BME280;35899;50.352;19.390;2023-05-09T03:25:02;98739.52;;;1.68;81.65
50011;BME280;35899;50.352;19.390;2023-05-09T03:27:28;98736.34;;;1.72;81.51
50011;BME280;35899;50.352;19.390;2023-05-09T03:29:55;98738.83;;;1.76;81.55
50011;BME280;35899;50.352;19.390;2023-05-09T03:32:21;98739.95;;;1.80;81.48
50011;BME280;35899;50.352;19.390;2023-05-09T03:34:48;98742.91;;;1.85;81.61
50011;BME280;35899;50.352;19.390;2023-05-09T03:37:15;98746.91;;;1.89;81.81
50011;BME280;35899;50.352;19.390;2023-05-09T03:39:42;98744.71;;;1.96;81.87
50011;BME280;35899;50.352;19.390;2023-05-09T03:42:08;98740.26;;;2.04;81.89
50011;BME280;35899;50.352;19.390;2023-05-09T03:44:35;98739.34;;;2.14;82.02
50011;BME280;35899;50.352;19.390;2023-05-09T03:47:01;98742.15;;;2.26;81.92
50011;BME280;35899;50.352;19.390;2023-05-09T03:49:33;98743.10;;;2.37;82.10
50011;BME280;35899;50.352;19.390;2023-05-09T03:51:59;98742.54;;;2.46;82.04
50011;BME280;35899;50.352;19.390;2023-05-09T03:54:26;98740.73;;;2.56;82.13
50011;BME280;35899;50.352;19.390;2023-05-09T03:56:52;98744.08;;;2.67;82.15
50011;BME280;35899;50.352;19.390;2023-05-09T03:59:19;98742.58;;;2.78;82.20
50011;BME280;35899;50.352;19.390;2023-05-09T04:01:45;98742.28;;;2.89;82.09
50011;BME280;35899;50.352;19.390;2023-05-09T04:04:12;98739.27;;;3.00;81.88
50011;BME280;35899;50.352;19.390;2023-05-09T04:06:38;98739.69;;;3.10;81.86
50011;BME280;35899;50.352;19.390;2023-05-09T04:09:06;98739.12;;;3.19;81.83
50011;BME280;35899;50.352;19.390;2023-05-09T04:11:33;98740.75;;;3.28;81.35
50011;BME280;35899;50.352;19.390;2023-05-09T04:14:00;98737.86;;;3.40;81.71
50011;BME280;35899;50.352;19.390;2023-05-09T04:16:32;98737.73;;;3.50;81.66
50011;BME280;35899;50.352;19.390;2023-05-09T04:18:58;98736.10;;;3.60;81.55
50011;BME280;35899;50.352;19.390;2023-05-09T04:21:25;98738.34;;;3.70;81.60
50011;BME280;35899;50.352;19.390;2023-05-09T04:23:53;98738.86;;;3.82;81.61
50011;BME280;35899;50.352;19.390;2023-05-09T04:26:24;98735.15;;;3.92;81.48
50011;BME280;35899;50.352;19.390;2023-05-09T04:28:52;98736.62;;;4.00;81.18
50011;BME280;35899;50.352;19.390;2023-05-09T04:31:19;98742.02;;;4.08;81.04
50011;BME280;35899;50.352;19.390;2023-05-09T04:33:48;98741.66;;;4.19;81.05
50011;BME280;35899;50.352;19.390;2023-05-09T04:36:15;98746.14;;;4.30;80.83
50011;BME280;35899;50.352;19.390;2023-05-09T04:38:41;98746.23;;;4.38;80.86
50011;BME280;35899;50.352;19.390;2023-05-09T04:41:10;98746.25;;;4.48;81.02
50011;BME280;35899;50.352;19.390;2023-05-09T04:43:39;98742.47;;;4.59;81.05
50011;BME280;35899;50.352;19.390;2023-05-09T04:46:06;98738.88;;;4.69;80.86
50011;BME280;35899;50.352;19.390;2023-05-09T04:48:33;98738.93;;;4.78;80.82
50011;BME280;35899;50.352;19.390;2023-05-09T04:51:00;98737.79;;;4.86;80.79
50011;BME280;35899;50.352;19.390;2023-05-09T04:53:27;98736.80;;;4.95;81.17
50011;BME280;35899;50.352;19.390;2023-05-09T04:55:54;98740.54;;;5.06;81.15
50011;BME280;35899;50.352;19.390;2023-05-09T04:58:24;98741.78;;;5.20;81.25
50011;BME280;35899;50.352;19.390;2023-05-09T05:00:50;98739.45;;;5.32;81.46
50011;BME280;35899;50.352;19.390;2023-05-09T05:03:17;98738.47;;;5.45;81.21
50011;BME280;35899;50.352;19.390;2023-05-09T05:05:44;98734.40;;;5.58;81.48
50011;BME280;35899;50.352;19.390;2023-05-09T05:08:19;98731.63;;;5.72;81.50
50011;BME280;35899;50.352;19.390;2023-05-09T05:10:46;98731.67;;;5.85;81.43
50011;BME280;35899;50.352;19.390;2023-05-09T05:13:14;98730.72;;;5.97;81.41
50011;BME280;35899;50.352;19.390;2023-05-09T05:15:43;98725.22;;;6.11;81.35
50011;BME280;35899;50.352;19.390;2023-05-09T05:18:09;98728.98;;;6.24;81.30
50011;BME280;35899;50.352;19.390;2023-05-09T05:20:36;98724.20;;;6.36;81.15
50011;BME280;35899;50.352;19.390;2023-05-09T05:23:05;98724.68;;;6.50;81.36
50011;BME280;35899;50.352;19.390;2023-05-09T05:25:31;98721.43;;;6.62;81.23
50011;BME280;35899;50.352;19.390;2023-05-09T05:28:13;98721.86;;;6.73;80.86
50011;BME280;35899;50.352;19.390;2023-05-09T05:30:42;98720.30;;;6.85;81.01
50011;BME280;35899;50.352;19.390;2023-05-09T05:33:10;98719.52;;;6.99;81.05
50011;BME280;35899;50.352;19.390;2023-05-09T05:35:37;98719.88;;;7.11;81.05
50011;BME280;35899;50.352;19.390;2023-05-09T05:38:07;98720.17;;;7.28;81.25
50011;BME280;35899;50.352;19.390;2023-05-09T05:40:34;98721.84;;;7.45;81.06
50011;BME280;35899;50.352;19.390;2023-05-09T05:43:02;98720.64;;;7.60;80.42
50011;BME280;35899;50.352;19.390;2023-05-09T05:45:29;98720.61;;;7.72;79.82
50011;BME280;35899;50.352;19.390;2023-05-09T05:47:56;98721.53;;;7.82;79.43
50011;BME280;35899;50.352;19.390;2023-05-09T05:50:29;98722.81;;;7.92;78.88
50011;BME280;35899;50.352;19.390;2023-05-09T05:52:56;98718.48;;;8.03;78.54
50011;BME280;35899;50.352;19.390;2023-05-09T05:55:23;98717.49;;;8.13;78.67
50011;BME280;35899;50.352;19.390;2023-05-09T05:57:50;98714.74;;;8.28;78.14
50011;BME280;35899;50.352;19.390;2023-05-09T06:00:16;98714.14;;;8.40;78.06
50011;BME280;35899;50.352;19.390;2023-05-09T06:02:45;98710.20;;;8.50;77.42
50011;BME280;35899;50.352;19.390;2023-05-09T06:05:18;98708.61;;;8.62;76.74
50011;BME280;35899;50.352;19.390;2023-05-09T06:07:44;98711.65;;;8.74;76.23
50011;BME280;35899;50.352;19.390;2023-05-09T06:10:11;98709.89;;;8.81;75.29
50011;BME280;35899;50.352;19.390;2023-05-09T06:12:37;98713.27;;;8.90;75.11
50011;BME280;35899;50.352;19.390;2023-05-09T06:15:05;98714.34;;;9.02;75.63
50011;BME280;35899;50.352;19.390;2023-05-09T06:17:34;98710.15;;;9.14;74.75
50011;BME280;35899;50.352;19.390;2023-05-09T06:20:00;98705.97;;;9.21;74.64
50011;BME280;35899;50.352;19.390;2023-05-09T06:22:27;98703.02;;;9.31;73.87
50011;BME280;35899;50.352;19.390;2023-05-09T06:24:53;98695.48;;;9.36;73.51
50011;BME280;35899;50.352;19.390;2023-05-09T06:27:20;98694.71;;;9.45;73.49
50011;BME280;35899;50.352;19.390;2023-05-09T06:29:46;98694.14;;;9.52;72.45
50011;BME280;35899;50.352;19.390;2023-05-09T06:32:13;98691.64;;;9.54;71.32
50011;BME280;35899;50.352;19.390;2023-05-09T06:34:39;98693.89;;;9.56;71.50
50011;BME280;35899;50.352;19.390;2023-05-09T06:37:06;98694.20;;;9.64;70.93
50011;BME280;35899;50.352;19.390;2023-05-09T06:39:32;98692.95;;;9.71;70.26
50011;BME280;35899;50.352;19.390;2023-05-09T06:41:59;98692.27;;;9.77;69.87
50011;BME280;35899;50.352;19.390;2023-05-09T06:44:30;98688.95;;;9.81;69.41
50011;BME280;35899;50.352;19.390;2023-05-09T06:46:56;98689.20;;;9.89;68.87
50011;BME280;35899;50.352;19.390;2023-05-09T06:49:22;98686.71;;;9.96;69.18
50011;BME280;35899;50.352;19.390;2023-05-09T06:51:49;98687.17;;;10.07;68.71
50011;BME280;35899;50.352;19.390;2023-05-09T06:54:15;98683.19;;;10.16;68.62
50011;BME280;35899;50.352;19.390;2023-05-09T06:56:42;98682.91;;;10.22;67.41
50011;BME280;35899;50.352;19.390;2023-05-09T06:59:08;98683.39;;;10.25;67.30
50011;BME280;35899;50.352;19.390;2023-05-09T07:01:35;98685.13;;;10.31;67.30
50011;BME280;35899;50.352;19.390;2023-05-09T07:04:01;98685.55;;;10.40;66.26
50011;BME280;35899;50.352;19.390;2023-05-09T07:06:28;98688.43;;;10.46;65.59
50011;BME280;35899;50.352;19.390;2023-05-09T07:08:54;98686.11;;;10.53;64.96
50011;BME280;35899;50.352;19.390;2023-05-09T07:11:24;98687.17;;;10.59;64.13
50011;BME280;35899;50.352;19.390;2023-05-09T07:13:50;98687.29;;;10.66;64.38
50011;BME280;35899;50.352;19.390;2023-05-09T07:16:17;98683.16;;;10.72;63.84
50011;BME280;35899;50.352;19.390;2023-05-09T07:18:43;98677.41;;;10.78;63.76
50011;BME280;35899;50.352;19.390;2023-05-09T07:21:10;98670.19;;;10.86;62.84
50011;BME280;35899;50.352;19.390;2023-05-09T07:23:36;98671.02;;;10.89;62.41
50011;BME280;35899;50.352;19.390;2023-05-09T07:26:02;98670.35;;;10.98;62.95
50011;BME280;35899;50.352;19.390;2023-05-09T07:28:29;98662.60;;;11.06;62.51
50011;BME280;35899;50.352;19.390;2023-05-09T07:30:56;98662.23;;;11.15;62.30
50011;BME280;35899;50.352;19.390;2023-05-09T07:33:22;98654.86;;;11.22;62.04
50011;BME280;35899;50.352;19.390;2023-05-09T07:35:49;98654.45;;;11.29;62.22
50011;BME280;35899;50.352;19.390;2023-05-09T07:38:15;98651.80;;;11.39;61.57
50011;BME280;35899;50.352;19.390;2023-05-09T07:40:42;98652.85;;;11.46;61.89
50011;BME280;35899;50.352;19.390;2023-05-09T07:43:08;98649.96;;;11.57;61.54
50011;BME280;35899;50.352;19.390;2023-05-09T07:45:34;98651.41;;;11.64;60.62
50011;BME280;35899;50.352;19.390;2023-05-09T07:48:03;98650.98;;;11.68;60.77
50011;BME280;35899;50.352;19.390;2023-05-09T07:50:30;98653.21;;;11.77;61.08
50011;BME280;35899;50.352;19.390;2023-05-09T07:52:56;98648.86;;;11.85;60.63
50011;BME280;35899;50.352;19.390;2023-05-09T07:55:23;98649.83;;;11.84;59.25
50011;BME280;35899;50.352;19.390;2023-05-09T07:57:49;98643.05;;;11.87;59.73
50011;BME280;35899;50.352;19.390;2023-05-09T08:00:15;98635.48;;;11.92;59.07
50011;BME280;35899;50.352;19.390;2023-05-09T08:02:42;98634.17;;;11.96;58.62
50011;BME280;35899;50.352;19.390;2023-05-09T08:05:09;98628.20;;;12.00;58.66
50011;BME280;35899;50.352;19.390;2023-05-09T08:07:35;98627.77;;;12.06;58.01
50011;BME280;35899;50.352;19.390;2023-05-09T08:10:01;98625.65;;;12.09;57.75
50011;BME280;35899;50.352;19.390;2023-05-09T08:12:29;98627.48;;;12.11;56.64
50011;BME280;35899;50.352;19.390;2023-05-09T08:14:55;98623.09;;;12.09;56.58
50011;BME280;35899;50.352;19.390;2023-05-09T08:17:22;98621.77;;;12.13;57.64
50011;BME280;35899;50.352;19.390;2023-05-09T08:19:48;98619.15;;;12.22;57.04
50011;BME280;35899;50.352;19.390;2023-05-09T08:22:15;98623.80;;;12.27;56.75
50011;BME280;35899;50.352;19.390;2023-05-09T08:24:41;98627.01;;;12.39;56.90
50011;BME280;35899;50.352;19.390;2023-05-09T08:27:08;98628.67;;;12.53;57.15
50011;BME280;35899;50.352;19.390;2023-05-09T08:29:34;98623.18;;;12.65;56.68
50011;BME280;35899;50.352;19.390;2023-05-09T08:32:01;98619.29;;;12.66;55.53
50011;BME280;35899;50.352;19.390;2023-05-09T08:34:27;98623.41;;;12.67;55.55
50011;BME280;35899;50.352;19.390;2023-05-09T08:36:53;98621.71;;;12.77;56.06
50011;BME280;35899;50.352;19.390;2023-05-09T08:39:20;98619.25;;;12.85;55.82
50011;BME280;35899;50.352;19.390;2023-05-09T08:41:46;98617.27;;;12.88;55.85
50011;BME280;35899;50.352;19.390;2023-05-09T08:44:13;98613.07;;;12.97;55.53
50011;BME280;35899;50.352;19.390;2023-05-09T08:46:40;98610.55;;;13.01;55.45
50011;BME280;35899;50.352;19.390;2023-05-09T08:49:08;98615.29;;;13.12;56.14
50011;BME280;35899;50.352;19.390;2023-05-09T08:51:35;98614.98;;;13.24;55.70
50011;BME280;35899;50.352;19.390;2023-05-09T08:54:04;98614.48;;;13.34;55.91
50011;BME280;35899;50.352;19.390;2023-05-09T08:56:30;98616.02;;;13.37;56.22
50011;BME280;35899;50.352;19.390;2023-05-09T08:58:57;98617.73;;;13.40;55.27
50011;BME280;35899;50.352;19.390;2023-05-09T09:01:23;98613.46;;;13.26;54.35
50011;BME280;35899;50.352;19.390;2023-05-09T09:03:50;98614.17;;;13.16;54.21
50011;BME280;35899;50.352;19.390;2023-05-09T09:06:19;98614.20;;;13.15;55.18
50011;BME280;35899;50.352;19.390;2023-05-09T09:08:46;98608.64;;;13.33;55.48
50011;BME280;35899;50.352;19.390;2023-05-09T09:11:13;98604.95;;;13.41;54.27
50011;BME280;35899;50.352;19.390;2023-05-09T09:13:40;98607.11;;;13.52;54.23
50011;BME280;35899;50.352;19.390;2023-05-09T09:16:08;98609.98;;;13.68;55.13
50011;BME280;35899;50.352;19.390;2023-05-09T09:18:35;98602.58;;;13.84;55.46
50011;BME280;35899;50.352;19.390;2023-05-09T09:21:08;98597.35;;;14.03;54.85
50011;BME280;35899;50.352;19.390;2023-05-09T09:23:46;98596.54;;;14.16;54.28
50011;BME280;35899;50.352;19.390;2023-05-09T09:26:21;98602.13;;;14.19;54.10
50011;BME280;35899;50.352;19.390;2023-05-09T09:28:48;98602.38;;;14.08;53.31
50011;BME280;35899;50.352;19.390;2023-05-09T09:31:20;98606.13;;;14.09;53.36
50011;BME280;35899;50.352;19.390;2023-05-09T09:33:47;98610.20;;;14.15;52.64
50011;BME280;35899;50.352;19.390;2023-05-09T09:36:14;98608.66;;;14.31;53.27
50011;BME280;35899;50.352;19.390;2023-05-09T09:38:40;98604.70;;;14.49;53.11
50011;BME280;35899;50.352;19.390;2023-05-09T09:41:15;98597.21;;;14.80;53.37
50011;BME280;35899;50.352;19.390;2023-05-09T09:43:44;98596.83;;;15.09;53.38
50011;BME280;35899;50.352;19.390;2023-05-09T09:46:13;98595.25;;;15.18;52.73
50011;BME280;35899;50.352;19.390;2023-05-09T09:48:40;98592.33;;;15.34;52.51
50011;BME280;35899;50.352;19.390;2023-05-09T09:51:11;98589.16;;;15.40;50.71
50011;BME280;35899;50.352;19.390;2023-05-09T09:53:40;98582.52;;;15.34;50.43
50011;BME280;35899;50.352;19.390;2023-05-09T09:56:07;98585.83;;;15.54;49.61
50011;BME280;35899;50.352;19.390;2023-05-09T09:58:34;98580.38;;;15.39;49.42
50011;BME280;35899;50.352;19.390;2023-05-09T10:03:43;98576.58;;;16.35;49.63
50011;BME280;35899;50.352;19.390;2023-05-09T10:06:10;98572.80;;;16.66;48.83
50011;BME280;35899;50.352;19.390;2023-05-09T10:08:37;98574.38;;;16.97;47.31
50011;BME280;35899;50.352;19.390;2023-05-09T10:11:03;98574.68;;;17.34;47.86
50011;BME280;35899;50.352;19.390;2023-05-09T10:13:33;98569.40;;;17.72;47.36
50011;BME280;35899;50.352;19.390;2023-05-09T10:16:00;98564.05;;;18.18;47.28
50011;BME280;35899;50.352;19.390;2023-05-09T10:18:30;98566.23;;;18.50;44.65
50011;BME280;35899;50.352;19.390;2023-05-09T10:20:58;98561.13;;;18.54;44.33
50011;BME280;35899;50.352;19.390;2023-05-09T10:23:27;98554.85;;;18.28;43.23
50011;BME280;35899;50.352;19.390;2023-05-09T10:28:31;98553.44;;;18.67;43.24
50011;BME280;35899;50.352;19.390;2023-05-09T10:31:03;98546.41;;;19.08;42.20
50011;BME280;35899;50.352;19.390;2023-05-09T10:33:33;98536.64;;;19.42;42.08
50011;BME280;35899;50.352;19.390;2023-05-09T10:36:02;98533.73;;;19.67;41.55
50011;BME280;35899;50.352;19.390;2023-05-09T10:38:29;98535.29;;;19.74;41.07
50011;BME280;35899;50.352;19.390;2023-05-09T10:40:56;98533.27;;;19.86;39.63
50011;BME280;35899;50.352;19.390;2023-05-09T10:43:23;98535.42;;;20.29;39.32
50011;BME280;35899;50.352;19.390;2023-05-09T10:45:50;98534.52;;;20.68;38.07
50011;BME280;35899;50.352;19.390;2023-05-09T10:48:16;98533.06;;;20.86;37.20
50011;BME280;35899;50.352;19.390;2023-05-09T10:50:43;98529.45;;;21.19;37.59
50011;BME280;35899;50.352;19.390;2023-05-09T10:53:10;98526.30;;;21.48;36.25
50011;BME280;35899;50.352;19.390;2023-05-09T10:55:47;98528.95;;;21.95;36.67
50011;BME280;35899;50.352;19.390;2023-05-09T10:58:18;98522.23;;;22.59;35.03
50011;BME280;35899;50.352;19.390;2023-05-09T11:00:48;98515.61;;;22.88;34.11
50011;BME280;35899;50.352;19.390;2023-05-09T11:03:15;98507.27;;;23.31;34.82
50011;BME280;35899;50.352;19.390;2023-05-09T11:05:54;98506.41;;;23.02;33.99
50011;BME280;35899;50.352;19.390;2023-05-09T11:10:55;98514.13;;;23.63;33.18
50011;BME280;35899;50.352;19.390;2023-05-09T11:13:23;98503.86;;;23.66;32.72
50011;BME280;35899;50.352;19.390;2023-05-09T11:16:02;98506.57;;;23.28;32.28
50011;BME280;35899;50.352;19.390;2023-05-09T11:18:28;98502.48;;;23.39;31.70
50011;BME280;35899;50.352;19.390;2023-05-09T11:20:56;98493.06;;;24.05;31.29
50011;BME280;35899;50.352;19.390;2023-05-09T11:23:28;98493.09;;;24.39;30.37
50011;BME280;35899;50.352;19.390;2023-05-09T11:26:08;98485.45;;;24.10;30.69
50011;BME280;35899;50.352;19.390;2023-05-09T11:28:35;98486.71;;;24.82;30.86
50011;BME280;35899;50.352;19.390;2023-05-09T11:33:35;98478.27;;;25.76;29.18
50011;BME280;35899;50.352;19.390;2023-05-09T11:36:35;98476.27;;;26.37;28.95
50011;BME280;35899;50.352;19.390;2023-05-09T11:39:05;98468.94;;;26.82;28.63
50011;BME280;35899;50.352;19.390;2023-05-09T11:41:39;98469.09;;;27.15;28.09
50011;BME280;35899;50.352;19.390;2023-05-09T11:47:02;98466.15;;;27.04;27.31
50011;BME280;35899;50.352;19.390;2023-05-09T11:49:29;98458.52;;;27.62;27.54
50011;BME280;35899;50.352;19.390;2023-05-09T11:51:58;98464.04;;;27.92;26.69
50011;BME280;35899;50.352;19.390;2023-05-09T11:54:24;98464.88;;;28.55;25.74
50011;BME280;35899;50.352;19.390;2023-05-09T11:56:51;98455.59;;;29.06;25.63
50011;BME280;35899;50.352;19.390;2023-05-09T11:59:20;98448.89;;;29.36;24.66
50011;BME280;35899;50.352;19.390;2023-05-09T12:01:47;98452.61;;;28.94;23.83
50011;BME280;35899;50.352;19.390;2023-05-09T12:04:18;98449.16;;;27.56;25.32
50011;BME280;35899;50.352;19.390;2023-05-09T12:06:48;98450.41;;;26.92;25.48
50011;BME280;35899;50.352;19.390;2023-05-09T12:09:16;98451.48;;;27.69;25.81
50011;BME280;35899;50.352;19.390;2023-05-09T12:11:49;98449.69;;;27.80;26.39
50011;BME280;35899;50.352;19.390;2023-05-09T12:14:26;98442.92;;;28.99;25.24
50011;BME280;35899;50.352;19.390;2023-05-09T12:16:53;98430.59;;;28.63;25.02
50011;BME280;35899;50.352;19.390;2023-05-09T12:19:19;98424.89;;;28.82;23.68
50011;BME280;35899;50.352;19.390;2023-05-09T12:21:46;98421.69;;;29.43;23.98
50011;BME280;35899;50.352;19.390;2023-05-09T12:24:12;98424.02;;;29.73;23.34
50011;BME280;35899;50.352;19.390;2023-05-09T12:26:38;98425.58;;;30.26;22.95
50011;BME280;35899;50.352;19.390;2023-05-09T12:29:05;98414.69;;;30.74;22.96
50011;BME280;35899;50.352;19.390;2023-05-09T12:31:32;98420.72;;;30.00;22.86
50011;BME280;35899;50.352;19.390;2023-05-09T12:34:01;98431.06;;;27.88;23.66
50011;BME280;35899;50.352;19.390;2023-05-09T12:36:33;98425.75;;;28.40;23.65
50011;BME280;35899;50.352;19.390;2023-05-09T12:39:07;98417.45;;;29.54;23.49
50011;BME280;35899;50.352;19.390;2023-05-09T12:41:34;98411.20;;;30.90;23.89
50011;BME280;35899;50.352;19.390;2023-05-09T12:44:19;98412.21;;;30.09;23.80
50011;BME280;35899;50.352;19.390;2023-05-09T12:46:56;98414.61;;;27.81;24.03
50011;BME280;35899;50.352;19.390;2023-05-09T12:49:26;98411.81;;;26.94;24.88
50011;BME280;35899;50.352;19.390;2023-05-09T12:51:58;98410.20;;;28.76;24.29
50011;BME280;35899;50.352;19.390;2023-05-09T12:54:27;98395.27;;;30.43;24.12
50011;BME280;35899;50.352;19.390;2023-05-09T12:56:57;98400.33;;;30.21;23.39
50011;BME280;35899;50.352;19.390;2023-05-09T12:59:24;98408.37;;;28.88;23.36
50011;BME280;35899;50.352;19.390;2023-05-09T13:01:52;98404.06;;;28.23;24.44
50011;BME280;35899;50.352;19.390;2023-05-09T13:04:22;98393.12;;;29.67;23.76
50011;BME280;35899;50.352;19.390;2023-05-09T13:06:55;98385.70;;;30.46;22.88
50011;BME280;35899;50.352;19.390;2023-05-09T13:09:22;98394.83;;;29.68;22.85
50011;BME280;35899;50.352;19.390;2023-05-09T13:12:03;98392.75;;;27.79;23.45
50011;BME280;35899;50.352;19.390;2023-05-09T13:14:29;98391.40;;;27.01;23.97
50011;BME280;35899;50.352;19.390;2023-05-09T13:16:56;98386.40;;;25.58;25.31
50011;BME280;35899;50.352;19.390;2023-05-09T13:19:22;98389.52;;;24.47;26.78
50011;BME280;35899;50.352;19.390;2023-05-09T13:21:53;98385.24;;;25.05;26.87
50011;BME280;35899;50.352;19.390;2023-05-09T13:24:19;98379.31;;;25.76;26.06